Portada
METAR-TAF:

METAR-TAF

Aeroports :

Aeroport de Barcelona-El Prat

Barcelona, Espanya

latitud: 41-17N, longitud: 002-04E, altitud: 4 m

Observació

L'informe es va fer fa 22 minuts, a les 06:30 UTC
Vent 6 kt del Nord-Oest
Temperatura 11°C
Humitat 71%
Pressió 1020 hPa
Visibilitat 10 km o més
sense núvols per sota de 1500 mi sense presència de cumulonimbus.

METAR: LEBL 280630Z 31006KT CAVOK 11/06 Q1020 NOSIG

Hora: 07:52 (06:52 UTC)

Pronòstic

L'informe es va fer fa 1 hora i 52 minuts, a les 05:00 UTC
Pronòstic vàlid del 28 a les 06 UTC al 29 a les 06 UTC
Vent 6 kt del Nord/Nord-Oest
Visibilitat 10 km o més
Escasses núvols a una alçada de 4000 ft
Evolucionant progressivament
l' 28 a les 07 UTC al 28 a les 09 UTC
Vent 10 kt del Sud
Evolucionant progressivament
l' 28 a les 18 UTC al 28 a les 20 UTC
Vent 3 kt amb direcció variable

TAF: LEBL 280500Z 2806/2906 34006KT 9999 FEW040 TX16/2813Z TN11/2806Z BECMG 2807/2809 17010KT BECMG 2818/2820 VRB03KT

Observacions i pronòstics meteorològics de més de 4000 aeroports (METAR i TAF).

Les estacions disponibles són els punts grocs i vermells al mapa.

Posi el ratolí al punt desitjat per veure el nom de l'estació.

Feu clic per veure les observacions i els pronòstics meteorològics.

Per canviar el mapa: feu clic els botons verds amb una creu de color negre per apropar; al botó verd amb un guió per allunyar la imatge; o en les fletxes verdes per a mapes adjacents.


METAR-TAF: